Woodgate — D5BX7 — position and weather

sailwx.info

Track history (hours):
 
Tides and Currents Weather Stations Pressure Air Temp Water Temp Dewpoint Dewpoint Depression Visibility Wind Speed Wind Dir Waves Ship Positions

Woodgate

Last reported at 2016-Dec-02 19:19 UTC. Time now 2016-Dec-02 20:04 UTC.
Position N 53°34' W 003°24'.

Length 169 m; draft 5.5 m.

Type: Cargo ship. MMSI: 636015627.

Date/timePositionNaut miles runAvg speedWind from/ knotsBaromVisibWave heightAir tempDewpointWater temp
2016-Dec-02 19:19N 53°34' W 003°24'0 0.1
2016-Dec-02 18:28N 53°34' W 003°24'0 0.0
2016-Dec-02 17:28N 53°34' W 003°24'5 5.5
2016-Dec-02 16:33N 53°31' W 003°31'1312.8
2016-Dec-02 15:34N 53°30' W 003°53'14612.7
2016-Dec-02 04:04N 51°23' W 005°51'2813.9
2016-Dec-02 02:05N 50°56' W 005°52'714.1
2016-Dec-02 01:33N 50°48' W 005°52'1413.9
2016-Dec-02 00:33N 50°34' W 005°53'1413.7
2016-Dec-01 23:33N 50°21' W 005°54'1313.3
2016-Dec-01 22:33N 50°07' W 005°53'1313.1
2016-Dec-01 21:33N 49°54' W 005°55'1413.5
2016-Dec-01 20:33N 49°41' W 005°59'1513.8
2016-Dec-01 19:28N 49°26' W 006°02'7314.3
2016-Dec-01 14:23N 48°13' W 006°10'3 3.5
2016-Dec-01 13:30N 48°11' W 006°09'3 2.8
2016-Dec-01 12:33N 48°08' W 006°07'7 2.3
2016-Dec-01 09:25N 48°04' W 005°58'15 5.2
2016-Dec-01 06:33N 47°49' W 005°55'1412.1
2016-Dec-01 05:22N 47°35' W 005°55'1012.7
2016-Dec-01 04:33N 47°24' W 005°57'1313.0
2016-Dec-01 03:33N 47°11' W 005°59'1313.1
2016-Dec-01 02:33N 46°58' W 006°00'48511.8
2016-Nov-29 09:21N 39°22' W 009°49'1012.9
2016-Nov-29 08:33N 39°12' W 009°49'1312.5
2016-Nov-29 07:33N 38°60' W 009°48'1212.2
2016-Nov-29 06:33N 38°48' W 009°50'1312.9
2016-Nov-29 05:34N 38°35' W 009°51'1312.7
2016-Nov-29 04:33N 38°23' W 009°56'  
2016-Nov-26 22:15N 28°43' W 014°39'810.8
2016-Nov-26 21:33N 28°36' W 014°42'1110.7
2016-Nov-26 20:33N 28°26' W 014°46'1110.8
2016-Nov-26 19:33N 28°16' W 014°51'1110.9
2016-Nov-26 18:33N 28°06' W 014°55'1110.6
2016-Nov-26 17:33N 27°56' W 014°59'1110.9
2016-Nov-26 16:33N 27°46' W 015°03'1111.1
2016-Nov-26 15:33N 27°35' W 015°08'1211.2
2016-Nov-26 14:31N 27°24' W 015°13'  
Track history (hours):
 
Tides and Currents Weather Stations Pressure Air Temp Water Temp Dewpoint Dewpoint Depression Visibility Wind Speed Wind Dir Waves Ship Positions

Woodgate

Last reported at 2016-Dec-02 19:19 UTC. Time now 2016-Dec-02 20:04 UTC.
Position N 53°34' W 003°24'.

Length 169 m; draft 5.5 m.

Type: Cargo ship. MMSI: 636015627.

Date/timePositionNaut miles runAvg speedWind from/ knotsBaromVisibWave heightAir tempDewpointWater temp
2016-Dec-02 19:19N 53°34' W 003°24'0 0.1
2016-Dec-02 18:28N 53°34' W 003°24'0 0.0
2016-Dec-02 17:28N 53°34' W 003°24'5 5.5
2016-Dec-02 16:33N 53°31' W 003°31'1312.8
2016-Dec-02 15:34N 53°30' W 003°53'14612.7
2016-Dec-02 04:04N 51°23' W 005°51'2813.9
2016-Dec-02 02:05N 50°56' W 005°52'714.1
2016-Dec-02 01:33N 50°48' W 005°52'1413.9
2016-Dec-02 00:33N 50°34' W 005°53'1413.7
2016-Dec-01 23:33N 50°21' W 005°54'1313.3
2016-Dec-01 22:33N 50°07' W 005°53'1313.1
2016-Dec-01 21:33N 49°54' W 005°55'1413.5
2016-Dec-01 20:33N 49°41' W 005°59'1513.8
2016-Dec-01 19:28N 49°26' W 006°02'7314.3
2016-Dec-01 14:23N 48°13' W 006°10'3 3.5
2016-Dec-01 13:30N 48°11' W 006°09'3 2.8
2016-Dec-01 12:33N 48°08' W 006°07'7 2.3
2016-Dec-01 09:25N 48°04' W 005°58'15 5.2
2016-Dec-01 06:33N 47°49' W 005°55'1412.1
2016-Dec-01 05:22N 47°35' W 005°55'1012.7
2016-Dec-01 04:33N 47°24' W 005°57'1313.0
2016-Dec-01 03:33N 47°11' W 005°59'1313.1
2016-Dec-01 02:33N 46°58' W 006°00'48511.8
2016-Nov-29 09:21N 39°22' W 009°49'1012.9
2016-Nov-29 08:33N 39°12' W 009°49'1312.5
2016-Nov-29 07:33N 38°60' W 009°48'1212.2
2016-Nov-29 06:33N 38°48' W 009°50'1312.9
2016-Nov-29 05:34N 38°35' W 009°51'1312.7
2016-Nov-29 04:33N 38°23' W 009°56'  
2016-Nov-26 22:15N 28°43' W 014°39'810.8
2016-Nov-26 21:33N 28°36' W 014°42'1110.7
2016-Nov-26 20:33N 28°26' W 014°46'1110.8
2016-Nov-26 19:33N 28°16' W 014°51'1110.9
2016-Nov-26 18:33N 28°06' W 014°55'1110.6
2016-Nov-26 17:33N 27°56' W 014°59'1110.9
2016-Nov-26 16:33N 27°46' W 015°03'1111.1
2016-Nov-26 15:33N 27°35' W 015°08'1211.2
2016-Nov-26 14:31N 27°24' W 015°13'  

Dump ship's entire track history